createdAt,value
2023-04-28T00:00:11.868Z,11.02
2023-04-28T00:01:14.110Z,12.07
2023-04-28T00:02:17.175Z,7.75
2023-04-28T00:03:19.496Z,12.45
2023-04-28T00:04:22.319Z,8.77
2023-04-28T00:05:25.358Z,10.10
2023-04-28T00:06:27.634Z,11.55
2023-04-28T00:07:29.806Z,10.82
2023-04-28T00:08:32.117Z,10.13
2023-04-28T00:09:34.365Z,14.90
2023-04-28T00:10:36.506Z,11.43
2023-04-28T00:11:38.764Z,12.35
2023-04-28T00:12:40.962Z,12.88
2023-04-28T00:13:43.066Z,16.48
2023-04-28T00:14:45.419Z,11.45
2023-04-28T00:15:47.548Z,11.93
2023-04-28T00:16:50.127Z,10.10
2023-04-28T00:17:52.561Z,16.02
2023-04-28T00:18:54.788Z,9.60
2023-04-28T00:19:57.683Z,10.13
2023-04-28T00:21:01.577Z,12.98
2023-04-28T00:22:04.899Z,19.83
2023-04-28T00:23:07.143Z,10.15
2023-04-28T00:24:09.370Z,11.13
2023-04-28T00:25:11.568Z,13.50
2023-04-28T00:26:13.950Z,12.50
2023-04-28T00:27:18.624Z,14.27
2023-04-28T00:29:29.844Z,14.52
2023-04-28T00:30:32.073Z,12.75
2023-04-28T00:31:35.479Z,10.63
2023-04-28T00:32:37.792Z,11.10
2023-04-28T00:33:41.024Z,10.65
2023-04-28T00:34:43.149Z,14.90
2023-04-28T00:35:46.237Z,13.70
2023-04-28T00:36:48.534Z,12.45
2023-04-28T00:37:50.761Z,13.30
2023-04-28T00:38:53.055Z,15.50
2023-04-28T00:39:56.616Z,15.10
2023-04-28T00:40:58.837Z,14.82
2023-04-28T00:42:02.156Z,17.63
2023-04-28T00:43:04.462Z,13.98
2023-04-28T00:44:06.608Z,17.17
2023-04-28T00:45:09.379Z,15.15
2023-04-28T00:46:20.164Z,15.52
2023-04-28T00:47:22.658Z,12.30
2023-04-28T00:48:27.748Z,15.52
2023-04-28T00:49:30.761Z,13.57
2023-04-28T00:50:33.462Z,14.00
2023-04-28T00:51:35.701Z,18.38
2023-04-28T00:52:39.085Z,14.38
2023-04-28T00:53:41.792Z,13.63
2023-04-28T00:54:44.192Z,13.10
2023-04-28T00:55:48.077Z,14.10
2023-04-28T00:56:50.333Z,15.18
2023-04-28T00:57:55.466Z,18.48
2023-04-28T00:58:58.622Z,15.52
2023-04-28T01:00:00.958Z,13.93
2023-04-28T01:01:08.388Z,13.07
2023-04-28T01:02:17.254Z,14.65
2023-04-28T01:03:19.805Z,17.75
2023-04-28T01:04:23.098Z,12.32
2023-04-28T01:05:25.824Z,14.80
2023-04-28T01:06:29.340Z,16.33
2023-04-28T01:07:34.870Z,16.55
2023-04-28T01:08:38.880Z,14.32
2023-04-28T01:09:45.214Z,13.23
2023-04-28T01:10:57.674Z,14.52
2023-04-28T01:12:23.055Z,15.32
2023-04-28T01:13:28.786Z,18.05
2023-04-28T01:14:32.310Z,15.43
2023-04-28T01:15:34.506Z,19.27
2023-04-28T01:16:38.564Z,13.73
2023-04-28T01:17:41.820Z,16.58
2023-04-28T01:18:48.214Z,22.80
2023-04-28T01:19:50.612Z,19.63
2023-04-28T01:20:52.782Z,19.83
2023-04-28T01:21:54.900Z,13.50
2023-04-28T01:22:58.497Z,13.48
2023-04-28T01:24:01.720Z,13.75
2023-04-28T01:25:04.285Z,12.98
2023-04-28T01:26:06.533Z,13.55
2023-04-28T01:27:09.058Z,13.88
2023-04-28T01:28:13.269Z,16.13
2023-04-28T01:29:15.811Z,13.35
2023-04-28T01:30:18.079Z,16.45
2023-04-28T01:31:20.419Z,13.75
2023-04-28T01:32:22.712Z,16.00
2023-04-28T01:33:24.960Z,12.75
2023-04-28T01:34:27.148Z,14.63
2023-04-28T01:35:29.907Z,15.88
2023-04-28T01:36:33.516Z,14.98
2023-04-28T01:37:36.978Z,20.10
2023-04-28T01:38:39.196Z,16.20
2023-04-28T01:39:41.454Z,15.18
2023-04-28T01:40:43.667Z,13.57
2023-04-28T01:41:46.012Z,17.23
2023-04-28T01:42:48.243Z,12.43
2023-04-28T01:43:50.783Z,15.57
2023-04-28T01:44:53.676Z,17.80
2023-04-28T01:45:56.226Z,15.27
2023-04-28T01:46:58.445Z,11.85
2023-04-28T01:48:00.909Z,18.35
2023-04-28T01:49:03.153Z,17.75
2023-04-28T01:50:06.171Z,17.20
2023-04-28T01:51:08.309Z,13.32
2023-04-28T01:52:14.013Z,16.48
2023-04-28T01:53:20.528Z,16.10
2023-04-28T01:54:23.326Z,16.60
2023-04-28T01:55:26.039Z,15.27
2023-04-28T01:56:28.417Z,14.85
2023-04-28T01:57:34.925Z,17.17
2023-04-28T01:58:37.545Z,15.43
2023-04-28T01:59:40.686Z,19.30
2023-04-28T02:00:43.021Z,13.93
2023-04-28T02:01:45.842Z,17.75
2023-04-28T02:02:48.197Z,15.57
2023-04-28T02:03:50.680Z,17.40
2023-04-28T02:04:53.265Z,18.55
2023-04-28T02:05:55.531Z,16.02
2023-04-28T02:06:57.765Z,16.67
2023-04-28T02:07:59.936Z,14.45
2023-04-28T02:09:02.142Z,15.55
2023-04-28T02:10:04.747Z,15.63
2023-04-28T02:11:07.082Z,16.08
2023-04-28T02:12:09.215Z,16.65
2023-04-28T02:13:11.865Z,15.18
2023-04-28T02:14:14.283Z,18.27
2023-04-28T02:15:17.042Z,15.05
2023-04-28T02:16:19.267Z,14.55
2023-04-28T02:17:21.568Z,15.82
2023-04-28T02:18:23.783Z,18.83
2023-04-28T02:19:26.034Z,15.98
2023-04-28T02:20:29.918Z,15.70
2023-04-28T02:21:33.489Z,15.80
2023-04-28T02:22:35.623Z,17.95
2023-04-28T02:23:38.141Z,20.80
2023-04-28T02:24:40.762Z,14.38
2023-04-28T02:25:42.975Z,14.65
2023-04-28T02:26:48.242Z,19.80
2023-04-28T02:27:50.401Z,15.35
2023-04-28T02:28:52.601Z,15.07
2023-04-28T02:29:54.795Z,19.30
2023-04-28T02:31:11.398Z,18.20
2023-04-28T02:32:13.570Z,21.35
2023-04-28T02:33:15.888Z,17.02
2023-04-28T02:34:18.277Z,22.27
2023-04-28T02:35:20.632Z,17.95
2023-04-28T02:36:22.811Z,17.92
2023-04-28T02:37:25.082Z,15.75
2023-04-28T02:38:27.664Z,16.30
2023-04-28T02:39:31.140Z,17.42
2023-04-28T02:40:33.359Z,18.80
2023-04-28T02:41:36.080Z,15.43
2023-04-28T02:42:38.210Z,16.08
2023-04-28T02:43:40.720Z,15.38
2023-04-28T02:44:42.865Z,15.43
2023-04-28T02:45:45.020Z,21.63
2023-04-28T02:46:47.400Z,16.38
2023-04-28T02:47:49.673Z,16.80
2023-04-28T02:48:52.137Z,21.17
2023-04-28T02:49:54.301Z,15.45
2023-04-28T02:50:56.829Z,23.30
2023-04-28T02:51:59.039Z,18.38
2023-04-28T02:53:01.338Z,21.10
2023-04-28T02:54:03.631Z,16.33
2023-04-28T02:55:06.661Z,19.98
2023-04-28T02:56:08.811Z,18.98
2023-04-28T02:57:11.167Z,20.20
2023-04-28T02:58:13.589Z,16.65
2023-04-28T02:59:15.700Z,21.08
2023-04-28T03:00:18.163Z,18.60
2023-04-28T03:01:23.712Z,17.50
2023-04-28T03:02:26.140Z,15.60
2023-04-28T03:03:28.623Z,19.80
2023-04-28T03:04:31.117Z,15.98
2023-04-28T03:05:33.663Z,18.65
2023-04-28T03:06:36.088Z,20.08
2023-04-28T03:07:38.284Z,18.30
2023-04-28T03:08:40.594Z,19.10
2023-04-28T03:09:42.739Z,15.95
2023-04-28T03:10:44.961Z,18.63
2023-04-28T03:11:47.205Z,16.42
2023-04-28T03:12:49.433Z,16.17
2023-04-28T03:13:51.666Z,15.07
2023-04-28T03:14:53.853Z,18.42
2023-04-28T03:15:56.211Z,18.65
2023-04-28T03:16:58.697Z,19.25
2023-04-28T03:18:01.304Z,14.52
2023-04-28T03:19:04.324Z,18.88
2023-04-28T03:20:07.329Z,16.27
2023-04-28T03:21:09.502Z,17.50
2023-04-28T03:22:12.097Z,17.45
2023-04-28T03:23:14.266Z,17.77
2023-04-28T03:24:16.639Z,18.40
2023-04-28T03:25:19.878Z,17.90
2023-04-28T03:26:24.762Z,20.20
2023-04-28T03:27:28.063Z,18.10
2023-04-28T03:28:31.958Z,15.40
2023-04-28T03:29:35.423Z,15.95
2023-04-28T03:30:37.731Z,18.23
2023-04-28T03:31:40.112Z,19.88
2023-04-28T03:32:42.468Z,22.08
2023-04-28T03:33:47.048Z,15.10
2023-04-28T03:34:51.451Z,14.40
2023-04-28T03:35:54.234Z,12.70
2023-04-28T03:36:56.547Z,17.23
2023-04-28T03:38:03.728Z,20.15
2023-04-28T03:39:06.172Z,18.38
2023-04-28T03:40:09.101Z,14.70
2023-04-28T03:41:49.454Z,13.80
2023-04-28T03:43:09.981Z,12.73
2023-04-28T03:44:21.663Z,12.20
2023-04-28T03:45:24.571Z,16.08
2023-04-28T03:46:27.267Z,16.20
2023-04-28T03:47:30.021Z,18.52
2023-04-28T03:48:32.320Z,13.85
2023-04-28T03:49:34.534Z,13.98
2023-04-28T03:50:36.853Z,15.60
2023-04-28T03:51:39.142Z,12.93
2023-04-28T03:52:41.455Z,14.00
2023-04-28T03:53:43.612Z,19.92
2023-04-28T03:54:46.233Z,15.57
2023-04-28T03:55:48.671Z,13.63
2023-04-28T03:56:51.037Z,13.50
2023-04-28T03:57:53.320Z,15.25
2023-04-28T03:58:55.546Z,16.90
2023-04-28T03:59:57.909Z,16.90
2023-04-28T04:01:01.008Z,15.32
2023-04-28T04:02:03.249Z,13.93
2023-04-28T04:03:05.777Z,20.45
2023-04-28T04:04:08.255Z,11.55
2023-04-28T04:05:10.876Z,15.48
2023-04-28T04:06:13.650Z,17.13
2023-04-28T04:07:16.540Z,15.07
2023-04-28T04:08:19.280Z,15.32
2023-04-28T04:09:21.623Z,13.32
2023-04-28T04:10:23.748Z,13.32
2023-04-28T04:11:27.322Z,14.30
2023-04-28T04:12:29.627Z,17.92
2023-04-28T04:13:32.127Z,13.68
2023-04-28T04:14:34.524Z,14.65
2023-04-28T04:15:36.848Z,12.88
2023-04-28T04:16:39.849Z,13.57
2023-04-28T04:17:42.074Z,16.75
2023-04-28T04:18:44.348Z,17.25
2023-04-28T04:19:58.483Z,16.30
2023-04-28T04:21:02.287Z,16.23
2023-04-28T04:22:04.697Z,13.45
2023-04-28T04:23:06.991Z,14.15
2023-04-28T04:24:09.173Z,12.55
2023-04-28T04:25:11.345Z,11.75
2023-04-28T04:26:14.102Z,14.73
2023-04-28T04:27:16.275Z,15.65
2023-04-28T04:28:18.500Z,13.60
2023-04-28T04:29:20.667Z,18.40
2023-04-28T04:30:22.863Z,19.50
2023-04-28T04:31:25.655Z,13.98
2023-04-28T04:32:28.018Z,15.15
2023-04-28T04:33:30.659Z,11.48
2023-04-28T04:34:32.933Z,19.15
2023-04-28T04:35:35.358Z,16.58
2023-04-28T04:36:37.747Z,11.40
2023-04-28T04:37:40.606Z,16.52
2023-04-28T04:38:42.788Z,16.60
2023-04-28T04:39:50.882Z,13.30
2023-04-28T04:40:53.203Z,13.55
2023-04-28T04:41:55.381Z,13.30
2023-04-28T04:43:13.368Z,11.45
2023-04-28T04:44:21.721Z,17.17
2023-04-28T04:45:26.799Z,15.63
2023-04-28T04:46:29.231Z,13.40
2023-04-28T04:47:31.988Z,13.02
2023-04-28T04:48:34.737Z,15.30
2023-04-28T04:49:37.288Z,11.00
2023-04-28T04:50:41.054Z,12.93
2023-04-28T04:51:43.316Z,12.80
2023-04-28T04:52:45.736Z,13.43
2023-04-28T04:53:47.972Z,12.77
2023-04-28T04:54:50.643Z,11.13
2023-04-28T04:55:53.329Z,13.93
2023-04-28T04:56:55.979Z,16.73
2023-04-28T04:58:14.016Z,10.55
2023-04-28T04:59:54.656Z,11.75
2023-04-28T05:00:56.901Z,13.57
2023-04-28T05:01:59.381Z,11.88
2023-04-28T05:03:01.755Z,12.70
2023-04-28T05:04:04.346Z,15.02
2023-04-28T05:05:19.818Z,10.35
2023-04-28T05:06:27.589Z,15.43
2023-04-28T05:07:29.767Z,11.13
2023-04-28T05:08:32.073Z,8.55
2023-04-28T05:09:34.369Z,18.05
2023-04-28T05:10:36.817Z,10.90
2023-04-28T05:11:39.502Z,12.85
2023-04-28T05:12:41.691Z,11.95
2023-04-28T05:13:43.896Z,13.18
2023-04-28T05:14:47.620Z,12.02
2023-04-28T05:15:50.540Z,14.45
2023-04-28T05:17:15.911Z,10.88
2023-04-28T05:18:18.635Z,9.13
2023-04-28T05:19:21.103Z,10.60
2023-04-28T05:20:23.871Z,10.15
2023-04-28T05:21:26.345Z,13.82
2023-04-28T05:22:31.083Z,12.10
2023-04-28T05:23:33.569Z,10.77
2023-04-28T05:24:36.062Z,9.30
2023-04-28T05:25:38.450Z,10.32
2023-04-28T05:26:41.111Z,12.63
2023-04-28T05:27:45.393Z,13.18
2023-04-28T05:28:47.746Z,22.55
2023-04-28T05:29:50.353Z,11.88
2023-04-28T05:30:52.553Z,17.10
2023-04-28T05:31:55.451Z,7.70
2023-04-28T05:32:59.219Z,8.75
2023-04-28T05:34:01.772Z,8.63
2023-04-28T05:35:04.158Z,10.88
2023-04-28T05:36:07.351Z,14.25
2023-04-28T05:37:09.993Z,12.43
2023-04-28T05:38:15.218Z,11.25
2023-04-28T05:39:19.275Z,12.38
2023-04-28T05:40:23.084Z,9.10
2023-04-28T05:41:25.561Z,8.18
2023-04-28T05:42:27.816Z,9.55
2023-04-28T05:43:30.074Z,9.07
2023-04-28T05:44:32.409Z,9.30
2023-04-28T05:45:35.549Z,12.95
2023-04-28T05:46:38.313Z,9.93
2023-04-28T05:47:41.542Z,13.70
2023-04-28T05:48:43.930Z,14.93
2023-04-28T05:49:46.601Z,10.55
2023-04-28T05:50:49.514Z,9.27
2023-04-28T05:51:51.975Z,10.40
2023-04-28T05:52:54.197Z,9.32
2023-04-28T05:53:56.755Z,10.95
2023-04-28T05:54:58.998Z,12.27
2023-04-28T05:56:02.987Z,12.32
2023-04-28T05:57:05.479Z,11.15
2023-04-28T05:58:08.130Z,9.63
2023-04-28T05:59:10.385Z,10.45
2023-04-28T06:00:13.100Z,8.05
2023-04-28T06:01:16.862Z,7.60
2023-04-28T06:02:20.576Z,10.02
2023-04-28T06:03:25.765Z,8.43
2023-04-28T06:04:28.475Z,12.30
2023-04-28T06:05:31.394Z,9.18
2023-04-28T06:06:34.528Z,7.18
2023-04-28T06:07:37.046Z,12.25
2023-04-28T06:08:39.215Z,8.32
2023-04-28T06:09:41.421Z,7.68
2023-04-28T06:10:43.740Z,13.07
2023-04-28T06:11:46.023Z,8.70
2023-04-28T06:12:48.402Z,6.82
2023-04-28T06:13:51.579Z,8.63
2023-04-28T06:14:55.759Z,11.05
2023-04-28T06:16:01.734Z,9.68
2023-04-28T06:17:04.750Z,9.63
2023-04-28T06:18:09.662Z,9.10
2023-04-28T06:19:11.984Z,7.72
2023-04-28T06:20:14.451Z,8.07
2023-04-28T06:21:17.242Z,9.15
2023-04-28T06:22:19.499Z,11.45
2023-04-28T06:23:22.108Z,10.80
2023-04-28T06:24:25.808Z,8.68
2023-04-28T06:25:30.591Z,8.02
2023-04-28T06:26:32.734Z,8.13
2023-04-28T06:27:36.124Z,8.73
2023-04-28T06:28:38.389Z,8.35
2023-04-28T06:29:40.602Z,9.95
2023-04-28T06:30:42.777Z,7.45
2023-04-28T06:31:44.999Z,6.68
2023-04-28T06:32:47.469Z,10.18
2023-04-28T06:33:49.612Z,6.20
2023-04-28T06:34:51.738Z,8.40
2023-04-28T06:35:53.855Z,12.85
2023-04-28T06:36:56.129Z,11.90
2023-04-28T06:37:58.353Z,10.93
2023-04-28T06:39:00.799Z,9.00
2023-04-28T06:40:03.565Z,8.07
2023-04-28T06:41:06.044Z,15.35
2023-04-28T06:42:08.448Z,10.70
2023-04-28T06:43:12.847Z,14.05
2023-04-28T06:44:36.448Z,7.75
2023-04-28T06:45:39.196Z,9.70
2023-04-28T06:46:42.014Z,5.15
2023-04-28T06:47:45.851Z,9.25
2023-04-28T06:48:48.282Z,12.43
2023-04-28T06:49:52.410Z,6.97
2023-04-28T06:50:54.654Z,9.27
2023-04-28T06:51:58.127Z,12.30
2023-04-28T06:53:01.244Z,10.70
2023-04-28T06:54:05.296Z,7.78
2023-04-28T06:55:09.446Z,9.45
2023-04-28T06:56:11.995Z,7.82
2023-04-28T06:57:14.403Z,8.25
2023-04-28T06:58:16.846Z,6.70
2023-04-28T06:59:19.052Z,8.77
2023-04-28T07:00:21.383Z,6.43
2023-04-28T07:01:23.700Z,10.48
2023-04-28T07:02:27.138Z,7.70
2023-04-28T07:03:29.490Z,8.85
2023-04-28T07:04:31.688Z,8.80
2023-04-28T07:05:34.320Z,8.73
2023-04-28T07:06:36.461Z,7.07
2023-04-28T07:07:39.075Z,8.40
2023-04-28T07:08:42.090Z,6.78
2023-04-28T07:09:46.568Z,6.75
2023-04-28T07:10:48.810Z,8.70
2023-04-28T07:11:50.932Z,4.95
2023-04-28T07:12:53.199Z,6.22
2023-04-28T07:13:55.378Z,7.15
2023-04-28T07:14:57.505Z,8.82
2023-04-28T07:15:59.855Z,6.22
2023-04-28T07:17:02.833Z,7.65
2023-04-28T07:18:05.150Z,7.45
2023-04-28T07:19:07.340Z,5.30
2023-04-28T07:20:09.789Z,7.70
2023-04-28T07:21:11.936Z,4.63
2023-04-28T07:22:14.061Z,7.45
2023-04-28T07:23:16.727Z,8.70
2023-04-28T07:24:19.021Z,8.23
2023-04-28T07:25:21.588Z,6.63
2023-04-28T07:26:24.208Z,7.93
2023-04-28T07:27:26.709Z,11.20
2023-04-28T07:28:28.987Z,7.57
2023-04-28T07:29:35.239Z,7.00
2023-04-28T07:30:37.981Z,7.72
2023-04-28T07:31:40.240Z,7.35
2023-04-28T07:32:43.928Z,9.57
2023-04-28T07:33:46.285Z,7.22
2023-04-28T07:34:48.882Z,7.03
2023-04-28T07:35:52.590Z,11.05
2023-04-28T07:36:55.583Z,7.25
2023-04-28T07:37:58.187Z,9.05
2023-04-28T07:39:01.919Z,7.72
2023-04-28T07:40:05.258Z,7.53
2023-04-28T07:41:09.941Z,10.82
2023-04-28T07:42:13.440Z,9.32
2023-04-28T07:43:15.833Z,7.10
2023-04-28T07:44:18.741Z,8.38
2023-04-28T07:45:21.425Z,10.20
2023-04-28T07:46:23.846Z,6.00
2023-04-28T07:47:26.763Z,9.70
2023-04-28T07:48:29.015Z,7.38
2023-04-28T07:49:31.744Z,6.00
2023-04-28T07:50:34.614Z,11.98
2023-04-28T07:51:37.159Z,7.18
2023-04-28T07:52:39.703Z,5.45
2023-04-28T07:53:42.013Z,5.30
2023-04-28T07:54:44.206Z,4.75
2023-04-28T07:55:46.361Z,7.43
2023-04-28T07:56:48.667Z,6.97
2023-04-28T07:57:51.172Z,7.32
2023-04-28T07:58:54.523Z,7.95
2023-04-28T07:59:56.790Z,7.75
2023-04-28T08:00:59.002Z,6.18
2023-04-28T08:02:01.352Z,5.70
2023-04-28T08:03:03.769Z,7.03
2023-04-28T08:04:06.606Z,7.43
2023-04-28T08:05:09.875Z,6.13
2023-04-28T08:06:13.076Z,5.43
2023-04-28T08:07:15.303Z,5.57
2023-04-28T08:08:17.450Z,7.22
2023-04-28T08:09:19.918Z,6.47
2023-04-28T08:10:22.086Z,7.25
2023-04-28T08:11:24.278Z,6.25
2023-04-28T08:12:26.578Z,6.25
2023-04-28T08:13:29.083Z,10.48
2023-04-28T08:14:32.505Z,8.65
2023-04-28T08:15:34.934Z,5.53
2023-04-28T08:16:40.309Z,4.72
2023-04-28T08:17:42.549Z,11.18
2023-04-28T08:18:45.886Z,5.63
2023-04-28T08:19:48.852Z,7.90
2023-04-28T08:20:51.004Z,6.18
2023-04-28T08:21:53.143Z,10.00
2023-04-28T08:22:55.653Z,5.50
2023-04-28T08:23:57.775Z,8.70
2023-04-28T08:24:59.990Z,7.20
2023-04-28T08:26:02.240Z,7.85
2023-04-28T08:27:04.508Z,6.63
2023-04-28T08:28:08.684Z,5.88
2023-04-28T08:29:10.854Z,6.40
2023-04-28T08:30:13.304Z,4.45
2023-04-28T08:31:15.506Z,3.88
2023-04-28T08:32:18.268Z,7.43
2023-04-28T08:33:20.466Z,8.88
2023-04-28T08:34:22.962Z,5.78
2023-04-28T08:35:25.328Z,5.55
2023-04-28T08:36:31.864Z,10.23
2023-04-28T08:37:34.340Z,4.75
2023-04-28T08:38:36.563Z,6.63
2023-04-28T08:39:38.729Z,9.40
2023-04-28T08:40:42.833Z,6.18
2023-04-28T08:41:45.340Z,7.63
2023-04-28T08:42:47.773Z,6.75
2023-04-28T08:43:49.938Z,7.55
2023-04-28T08:44:59.342Z,7.60
2023-04-28T08:46:06.921Z,5.60
2023-04-28T08:47:14.192Z,5.55
2023-04-28T08:48:21.222Z,5.15
2023-04-28T08:49:33.030Z,7.45
2023-04-28T08:50:36.548Z,8.00
2023-04-28T08:51:49.908Z,6.15
2023-04-28T08:52:53.445Z,7.53
2023-04-28T08:54:22.324Z,5.97
2023-04-28T08:55:21.949Z,9.25
2023-04-28T08:56:25.071Z,6.28
2023-04-28T08:57:28.445Z,7.50
2023-04-28T08:58:31.151Z,5.93
2023-04-28T08:59:33.499Z,6.60
2023-04-28T09:00:38.091Z,8.43
2023-04-28T09:01:40.307Z,5.85
2023-04-28T09:02:42.897Z,9.75
2023-04-28T09:03:47.883Z,6.97
2023-04-28T09:04:50.425Z,8.25
2023-04-28T09:05:52.834Z,7.80
2023-04-28T09:06:55.034Z,7.07
2023-04-28T09:07:57.233Z,8.95
2023-04-28T09:09:22.009Z,6.13
2023-04-28T09:10:26.554Z,10.48
2023-04-28T09:11:28.686Z,5.00
2023-04-28T09:12:37.943Z,8.43
2023-04-28T09:13:41.078Z,6.38
2023-04-28T09:14:43.314Z,7.18
2023-04-28T09:15:45.600Z,10.32
2023-04-28T09:16:48.184Z,6.20
2023-04-28T09:17:52.018Z,10.30
2023-04-28T09:18:58.198Z,6.63
2023-04-28T09:20:01.458Z,6.53
2023-04-28T09:21:10.512Z,7.63
2023-04-28T09:22:24.768Z,7.78
2023-04-28T09:23:28.713Z,8.48
2023-04-28T09:24:43.219Z,7.93
2023-04-28T09:26:05.679Z,9.60
2023-04-28T09:27:11.512Z,5.38
2023-04-28T09:28:22.067Z,6.10
2023-04-28T09:29:24.530Z,10.00
2023-04-28T09:30:42.418Z,7.15
2023-04-28T09:31:44.675Z,8.85
2023-04-28T09:33:04.696Z,11.50
2023-04-28T09:34:07.296Z,7.93
2023-04-28T09:35:09.769Z,9.15
2023-04-28T09:36:11.968Z,9.70
2023-04-28T09:37:22.449Z,6.78
2023-04-28T09:38:24.756Z,6.28
2023-04-28T09:39:33.300Z,12.23
2023-04-28T09:40:58.694Z,5.43
2023-04-28T09:42:03.573Z,9.35
2023-04-28T09:43:23.341Z,6.40
2023-04-28T09:44:25.614Z,6.28
2023-04-28T09:45:42.489Z,7.50
2023-04-28T09:46:46.158Z,7.30
2023-04-28T09:47:48.688Z,8.38
2023-04-28T09:49:01.766Z,8.05
2023-04-28T09:50:06.620Z,6.20
2023-04-28T09:51:10.996Z,5.78
2023-04-28T09:52:14.650Z,6.97
2023-04-28T09:53:19.648Z,10.00
2023-04-28T09:54:23.555Z,7.00
2023-04-28T09:55:28.329Z,8.00
2023-04-28T09:56:32.334Z,8.93
2023-04-28T09:57:36.007Z,6.78
2023-04-28T09:58:40.889Z,6.55
2023-04-28T09:59:47.558Z,8.10
2023-04-28T10:00:57.945Z,5.38
2023-04-28T10:02:04.033Z,11.55
2023-04-28T10:03:15.524Z,8.50
2023-04-28T10:04:18.846Z,5.22
2023-04-28T10:05:23.284Z,5.63
2023-04-28T10:06:28.876Z,11.52
2023-04-28T10:07:34.991Z,8.02
2023-04-28T10:08:37.957Z,8.18
2023-04-28T10:09:44.110Z,7.68
2023-04-28T10:10:49.144Z,7.32
2023-04-28T10:11:52.551Z,8.32
2023-04-28T10:12:55.185Z,7.53
2023-04-28T10:13:57.950Z,9.02
2023-04-28T10:15:00.540Z,7.65
2023-04-28T10:16:04.419Z,7.72
2023-04-28T10:17:07.603Z,10.38
2023-04-28T10:18:11.896Z,10.48
2023-04-28T10:19:14.064Z,8.95
2023-04-28T10:20:16.976Z,8.88
2023-04-28T10:21:22.064Z,16.20
2023-04-28T10:23:01.043Z,7.15
2023-04-28T10:24:13.317Z,9.95
2023-04-28T10:25:29.835Z,9.73
2023-04-28T10:27:09.470Z,12.27
2023-04-28T10:28:12.061Z,10.75
2023-04-28T10:30:30.586Z,13.50
2023-04-28T10:31:33.479Z,7.40
2023-04-28T10:32:35.747Z,8.95
2023-04-28T10:33:39.012Z,9.55
2023-04-28T10:34:41.402Z,7.55
2023-04-28T10:35:45.729Z,6.63
2023-04-28T10:36:51.064Z,11.93
2023-04-28T10:38:11.903Z,13.98
2023-04-28T10:39:14.268Z,7.07
2023-04-28T10:40:48.518Z,9.77
2023-04-28T10:41:50.794Z,11.68
2023-04-28T10:42:56.162Z,7.32
2023-04-28T10:43:58.384Z,9.10
2023-04-28T10:45:00.543Z,7.90
2023-04-28T10:46:06.730Z,8.00
2023-04-28T10:47:10.135Z,8.48
2023-04-28T10:48:12.550Z,8.63
2023-04-28T10:49:14.677Z,9.18
2023-04-28T10:50:16.901Z,8.85
2023-04-28T10:51:20.751Z,8.70
2023-04-28T10:52:40.751Z,11.65
2023-04-28T10:53:43.618Z,8.50
2023-04-28T10:55:24.039Z,10.63
2023-04-28T10:56:27.810Z,11.00
2023-04-28T10:57:30.027Z,6.57
2023-04-28T10:58:32.609Z,9.85
2023-04-28T10:59:34.862Z,7.53
2023-04-28T11:00:37.622Z,9.38
2023-04-28T11:01:40.598Z,10.77
2023-04-28T11:02:44.928Z,8.25
2023-04-28T11:03:47.514Z,14.85
2023-04-28T11:05:12.656Z,8.25
2023-04-28T11:06:26.700Z,8.82
2023-04-28T11:07:28.916Z,9.20
2023-04-28T11:08:31.762Z,8.00
2023-04-28T11:09:33.850Z,11.88
2023-04-28T11:11:10.057Z,6.72
2023-04-28T11:12:12.357Z,9.25
2023-04-28T11:13:34.239Z,5.47
2023-04-28T11:14:43.229Z,10.88
2023-04-28T11:16:03.145Z,10.07
2023-04-28T11:17:07.720Z,9.77
2023-04-28T11:18:20.240Z,8.57
2023-04-28T11:19:22.959Z,9.13
2023-04-28T11:20:26.928Z,10.98
2023-04-28T11:21:29.515Z,7.10
2023-04-28T11:22:32.353Z,7.38
2023-04-28T11:23:35.382Z,10.23
2023-04-28T11:24:38.138Z,9.43
2023-04-28T11:25:56.721Z,10.93
2023-04-28T11:26:59.403Z,9.13
2023-04-28T11:28:06.994Z,11.40
2023-04-28T11:29:09.287Z,8.65
2023-04-28T11:30:22.309Z,7.00
2023-04-28T11:31:26.382Z,9.52
2023-04-28T11:32:35.823Z,7.15
2023-04-28T11:33:38.908Z,10.05
2023-04-28T11:34:41.106Z,7.80
2023-04-28T11:35:43.806Z,9.80
2023-04-28T11:36:46.023Z,8.85
2023-04-28T11:38:04.083Z,10.65
2023-04-28T11:39:08.918Z,17.38
2023-04-28T11:40:13.007Z,11.35
2023-04-28T11:41:15.160Z,11.70
2023-04-28T11:42:17.510Z,6.43
2023-04-28T11:43:43.741Z,8.00
2023-04-28T11:44:55.475Z,7.70
2023-04-28T11:45:57.967Z,10.10
2023-04-28T11:47:03.103Z,11.25
2023-04-28T11:48:22.218Z,10.30
2023-04-28T11:49:25.126Z,11.13
2023-04-28T11:50:37.787Z,10.25
2023-04-28T11:51:40.092Z,8.85
2023-04-28T11:52:51.026Z,11.68
2023-04-28T11:53:55.564Z,8.38
2023-04-28T11:55:02.073Z,12.00
2023-04-28T11:56:10.738Z,10.20
2023-04-28T11:57:21.469Z,8.13
2023-04-28T11:58:24.890Z,10.05
2023-04-28T11:59:32.429Z,6.80
2023-04-28T12:00:34.738Z,7.53
2023-04-28T12:01:59.441Z,9.80
2023-04-28T12:03:08.327Z,10.68
2023-04-28T12:04:10.843Z,9.90
2023-04-28T12:05:13.234Z,15.02
2023-04-28T12:06:19.147Z,9.25
2023-04-28T12:07:21.580Z,10.45
2023-04-28T12:08:29.696Z,9.20
2023-04-28T12:09:33.472Z,9.85
2023-04-28T12:10:35.921Z,7.75
2023-04-28T12:11:38.158Z,5.82
2023-04-28T12:12:51.076Z,8.75
2023-04-28T12:14:06.259Z,9.60
2023-04-28T12:15:09.463Z,9.32
2023-04-28T12:16:11.687Z,6.80
2023-04-28T12:17:30.005Z,7.35
2023-04-28T12:18:36.477Z,7.53
2023-04-28T12:19:47.497Z,6.65
2023-04-28T12:20:49.823Z,8.20
2023-04-28T12:22:04.986Z,9.68
2023-04-28T12:23:07.823Z,10.70
2023-04-28T12:24:20.886Z,7.30
2023-04-28T12:25:23.048Z,8.20
2023-04-28T12:26:25.747Z,10.82
2023-04-28T12:27:29.073Z,9.65
2023-04-28T12:28:38.346Z,10.30
2023-04-28T12:29:42.075Z,7.18
2023-04-28T12:30:44.576Z,6.47
2023-04-28T12:31:52.116Z,6.22
2023-04-28T12:32:56.077Z,11.73
2023-04-28T12:33:58.875Z,7.30
2023-04-28T12:35:01.030Z,12.27
2023-04-28T12:36:06.729Z,7.43
2023-04-28T12:37:09.577Z,15.95
2023-04-28T12:38:11.958Z,9.25
2023-04-28T12:39:16.540Z,7.97
2023-04-28T12:40:18.890Z,9.25
2023-04-28T12:41:21.103Z,6.43
2023-04-28T12:42:23.597Z,11.75
2023-04-28T12:43:27.652Z,10.65
2023-04-28T12:44:35.584Z,9.65
2023-04-28T12:45:38.982Z,8.07
2023-04-28T12:46:41.628Z,6.70
2023-04-28T12:47:44.106Z,7.18
2023-04-28T12:48:46.370Z,10.90
2023-04-28T12:49:50.759Z,10.30
2023-04-28T12:50:52.933Z,12.02
2023-04-28T12:51:55.092Z,9.43
2023-04-28T12:52:57.873Z,7.72
2023-04-28T12:54:00.078Z,7.15
2023-04-28T12:55:03.051Z,10.38
2023-04-28T12:56:05.567Z,12.00
2023-04-28T12:57:07.776Z,11.23
2023-04-28T12:58:09.957Z,11.15
2023-04-28T12:59:12.179Z,7.57
2023-04-28T13:00:16.412Z,8.98
2023-04-28T13:01:18.668Z,12.35
2023-04-28T13:02:21.061Z,9.20
2023-04-28T13:03:23.561Z,10.15
2023-04-28T13:04:26.086Z,9.50
2023-04-28T13:05:28.502Z,11.32
2023-04-28T13:06:30.942Z,7.47
2023-04-28T13:07:34.131Z,9.18
2023-04-28T13:08:36.771Z,7.82
2023-04-28T13:09:38.958Z,7.40
2023-04-28T13:10:41.119Z,11.23
2023-04-28T13:11:43.596Z,11.60
2023-04-28T13:12:45.952Z,7.65
2023-04-28T13:13:48.166Z,10.52
2023-04-28T13:14:51.080Z,8.88
2023-04-28T13:15:53.436Z,11.13
2023-04-28T13:16:55.832Z,13.55
2023-04-28T13:18:00.476Z,6.13
2023-04-28T13:19:04.787Z,9.85
2023-04-28T13:20:07.913Z,8.65
2023-04-28T13:21:10.228Z,10.95
2023-04-28T13:22:12.462Z,14.40
2023-04-28T13:23:14.790Z,10.55
2023-04-28T13:24:17.716Z,9.50
2023-04-28T13:25:20.104Z,9.95
2023-04-28T13:26:25.538Z,10.43
2023-04-28T13:27:30.526Z,8.85
2023-04-28T13:28:32.707Z,7.35
2023-04-28T13:29:36.183Z,8.95
2023-04-28T13:30:38.337Z,8.85
2023-04-28T13:31:40.987Z,8.88
2023-04-28T13:32:43.240Z,7.68
2023-04-28T13:33:45.874Z,8.77
2023-04-28T13:34:48.574Z,12.88
2023-04-28T13:35:51.164Z,10.23
2023-04-28T13:36:54.513Z,8.18
2023-04-28T13:38:01.903Z,11.77
2023-04-28T13:39:04.109Z,8.35
2023-04-28T13:40:07.258Z,10.07
2023-04-28T13:41:09.559Z,15.43
2023-04-28T13:42:13.194Z,10.00
2023-04-28T13:43:15.442Z,8.18
2023-04-28T13:44:17.927Z,10.43
2023-04-28T13:45:22.435Z,10.05
2023-04-28T13:46:25.098Z,9.43
2023-04-28T13:47:27.945Z,8.52
2023-04-28T13:48:30.094Z,11.18
2023-04-28T13:49:32.277Z,10.75
2023-04-28T13:50:34.427Z,9.73
2023-04-28T13:51:36.771Z,18.90
2023-04-28T13:52:39.027Z,7.57
2023-04-28T13:53:41.193Z,9.75
2023-04-28T13:54:43.946Z,8.52
2023-04-28T13:55:47.775Z,11.80
2023-04-28T13:56:51.229Z,12.15
2023-04-28T13:57:54.602Z,9.48
2023-04-28T13:58:57.112Z,12.13
2023-04-28T13:59:59.261Z,9.48
2023-04-28T14:01:01.588Z,8.52
2023-04-28T14:02:04.018Z,9.80